Time;durP1;ratioP1;P1;durP2;ratioP2;P2;SDS_P1;SDS_P2;PMS_P1;PMS_P2;Temp;Humidity;BMP_temperature;BMP_pressure;BME280_temperature;BME280_humidity;BME280_pressure;Samples;Min_cycle;Max_cycle;Signal;HPM_P1;HPM_P2
2021/01/05 00:02:08;;;;;;;37.53;15.90;;;;;;;2.10;82.09;100605.81;5041958;28;20099;-72
2021/01/05 00:04:34;;;;;;;34.80;16.35;;;;;;;2.11;81.79;100602.34;5039610;28;20033;-72
2021/01/05 00:07:04;;;;;;;38.70;16.25;;;;;;;2.10;82.03;100604.94;5039061;28;20371;-72
2021/01/05 00:09:30;;;;;;;37.80;16.90;;;;;;;2.18;82.23;100604.31;5040736;28;20037;-72
2021/01/05 00:12:07;;;;;;;38.88;18.27;;;;;;;2.19;81.68;100606.06;5044333;28;20487;-72
2021/01/05 00:14:33;;;;;;;35.33;16.65;;;;;;;2.22;81.54;100602.66;5043338;28;20029;-72
2021/01/05 00:16:58;;;;;;;44.50;18.55;;;;;;;2.19;81.48;100600.84;5042266;28;20057;-72
2021/01/05 00:19:25;;;;;;;39.45;17.92;;;;;;;2.23;81.80;100612.25;5043308;28;20069;-72
2021/01/05 00:21:51;;;;;;;40.00;18.48;;;;;;;2.26;81.38;100611.47;5045469;28;20037;-72
2021/01/05 00:24:17;;;;;;;38.45;17.67;;;;;;;2.25;81.37;100612.28;5045119;28;20076;-72
2021/01/05 00:26:42;;;;;;;37.22;17.65;;;;;;;2.32;81.69;100622.03;5042000;28;20065;-72
2021/01/05 00:29:09;;;;;;;36.38;17.88;;;;;;;2.39;81.11;100609.25;5041967;28;20033;-72
2021/01/05 00:31:34;;;;;;;43.63;20.13;;;;;;;2.36;80.73;100605.69;5044382;28;20041;-72
2021/01/05 00:34:00;;;;;;;42.28;20.75;;;;;;;2.37;81.37;100610.03;5045126;28;20025;-72
2021/01/05 00:36:26;;;;;;;41.78;19.65;;;;;;;2.35;80.93;100614.31;5043928;28;20427;-72
2021/01/05 00:38:51;;;;;;;44.92;20.13;;;;;;;2.28;81.13;100612.38;5041664;28;20518;-72
2021/01/05 00:41:17;;;;;;;39.58;19.17;;;;;;;2.29;81.04;100611.53;5041880;28;20488;-72
2021/01/05 00:43:42;;;;;;;46.85;22.27;;;;;;;2.24;81.18;100611.41;5044839;28;20107;-72
2021/01/05 00:46:11;;;;;;;46.05;21.00;;;;;;;2.22;81.55;100609.59;5045085;28;20045;-72
2021/01/05 00:48:36;;;;;;;51.65;21.17;;;;;;;2.24;81.53;100618.34;5042177;28;20034;-72
2021/01/05 00:51:03;;;;;;;47.30;21.48;;;;;;;2.19;81.69;100616.47;5040333;28;20030;-72
2021/01/05 00:53:28;;;;;;;39.17;19.65;;;;;;;2.24;81.66;100616.63;5042985;28;20040;-72
2021/01/05 00:55:53;;;;;;;39.78;20.05;;;;;;;2.22;81.70;100617.41;5043769;28;20043;-72
2021/01/05 00:58:23;;;;;;;42.72;20.88;;;;;;;2.23;81.63;100616.56;5042984;28;20029;-72
2021/01/05 01:00:53;;;;;;;47.08;20.75;;;;;;;2.27;81.23;100613.22;5040131;28;20537;-72
2021/01/05 01:03:19;;;;;;;47.58;21.90;;;;;;;2.28;80.92;100614.97;5041410;28;20037;-72
2021/01/05 01:05:45;;;;;;;39.97;20.38;;;;;;;2.33;81.57;100618.59;5043473;28;20052;-72
2021/01/05 01:08:15;;;;;;;38.85;19.45;;;;;;;2.37;81.32;100617.84;5044830;28;20112;-72
2021/01/05 01:10:47;;;;;;;39.92;19.38;;;;;;;2.36;80.83;100623.91;5020129;28;20072;-72
2021/01/05 01:13:14;;;;;;;45.05;21.02;;;;;;;2.33;80.79;100629.00;5019753;28;20042;-72
2021/01/05 01:15:41;;;;;;;42.17;21.98;;;;;;;2.24;81.00;100624.44;5003883;28;20554;-72
2021/01/05 01:18:07;;;;;;;44.38;21.42;;;;;;;2.18;81.26;100625.13;5019975;28;20056;-72
2021/01/05 01:20:35;;;;;;;46.53;20.95;;;;;;;2.17;81.57;100620.78;5044240;28;20503;-72
2021/01/05 01:23:02;;;;;;;43.88;19.73;;;;;;;2.08;82.05;100612.69;5042691;28;20028;-71
2021/01/05 01:25:27;;;;;;;44.55;20.20;;;;;;;2.10;81.43;100616.22;5042679;28;20113;-71
2021/01/05 01:27:53;;;;;;;44.40;21.35;;;;;;;2.11;81.90;100623.19;5039618;28;20029;-72
2021/01/05 01:30:27;;;;;;;42.75;21.15;;;;;;;2.10;82.14;100623.16;5042604;28;20034;-72
2021/01/05 01:32:57;;;;;;;42.78;20.30;;;;;;;2.16;81.77;100621.59;5042772;28;20025;-71
2021/01/05 01:35:27;;;;;;;41.03;20.83;;;;;;;2.14;82.03;100615.44;5041334;28;20434;-71
2021/01/05 01:37:53;;;;;;;45.17;21.05;;;;;;;2.16;82.12;100618.13;5039292;28;20052;-71
2021/01/05 01:40:31;;;;;;;41.25;18.88;;;;;;;2.20;82.05;100612.13;5041064;28;20126;-71
2021/01/05 01:42:57;;;;;;;43.65;22.42;;;;;;;2.24;81.72;100613.13;5042475;28;20068;-71
2021/01/05 01:45:24;;;;;;;40.47;20.67;;;;;;;2.22;81.49;100607.00;5042916;28;20061;-71
2021/01/05 01:47:53;;;;;;;43.47;20.65;;;;;;;2.22;81.97;100610.47;5040524;28;20106;-72
2021/01/05 01:50:27;;;;;;;37.95;19.98;;;;;;;2.21;81.25;100608.72;5039534;28;20052;-72
2021/01/05 01:53:18;;;;;;;41.08;19.38;;;;;;;2.25;81.65;100599.25;5043855;28;20064;-71
2021/01/05 01:56:12;;;;;;;44.45;21.55;;;;;;;2.14;81.30;100598.97;5019330;28;20164;-71
2021/01/05 01:59:11;;;;;;;38.30;20.50;;;;;;;2.13;81.69;100594.59;5019181;28;20042;-71
2021/01/05 02:01:57;;;;;;;36.60;18.83;;;;;;;2.13;82.00;100594.59;5041015;28;20031;-71
2021/01/05 02:04:52;;;;;;;41.92;20.98;;;;;;;2.18;81.54;100593.88;5040805;28;20037;-71
2021/01/05 02:07:45;;;;;;;45.40;21.45;;;;;;;2.09;81.51;100591.00;5039775;28;20036;-72
2021/01/05 02:10:37;;;;;;;42.90;21.70;;;;;;;2.12;81.59;100591.13;5042249;28;20068;-72
2021/01/05 02:13:33;;;;;;;41.40;21.30;;;;;;;2.16;81.39;100595.56;5034658;28;20033;-71
2021/01/05 02:16:25;;;;;;;40.17;20.50;;;;;;;2.24;81.31;100589.69;5046738;28;20056;-71
2021/01/05 02:18:59;;;;;;;43.88;21.15;;;;;;;2.24;81.31;100581.88;5033631;28;20037;-71
2021/01/05 02:21:31;;;;;;;42.45;21.63;;;;;;;2.16;81.10;100587.75;5040040;28;20041;-71
2021/01/05 02:24:20;;;;;;;36.13;19.92;;;;;;;2.21;81.37;100584.41;5041813;28;20562;-72
2021/01/05 02:26:56;;;;;;;39.10;19.83;;;;;;;2.26;81.13;100582.81;5035241;28;20041;-72
2021/01/05 02:29:29;;;;;;;37.05;20.83;;;;;;;2.24;81.22;100580.16;5020484;28;20042;-71
2021/01/05 02:32:20;;;;;;;42.35;23.17;;;;;;;2.16;81.12;100582.53;5041812;28;20578;-71
2021/01/05 02:35:12;;;;;;;38.65;20.25;;;;;;;2.18;81.30;100582.59;5018082;28;20045;-72
2021/01/05 02:38:31;;;;;;;36.75;20.15;;;;;;;2.11;81.48;100578.91;5033552;28;20141;-71
2021/01/05 02:41:41;;;;;;;39.30;20.98;;;;;;;2.09;81.54;100572.78;5036179;28;20056;-71
2021/01/05 02:44:34;;;;;;;42.20;21.73;;;;;;;2.11;81.58;100572.84;5038388;28;20056;-71
2021/01/05 02:47:24;;;;;;;39.05;22.45;;;;;;;2.16;81.47;100576.47;5042754;28;20044;-71
2021/01/05 02:50:20;;;;;;;47.03;22.85;;;;;;;2.18;81.32;100577.38;5039628;28;20080;-71
2021/01/05 02:53:26;;;;;;;40.28;21.77;;;;;;;2.08;81.73;100576.22;5034233;28;20111;-71
2021/01/05 02:56:39;;;;;;;43.72;21.58;;;;;;;2.06;81.91;100583.09;5035333;28;20041;-71
2021/01/05 02:59:50;;;;;;;37.92;20.55;;;;;;;2.09;82.20;100577.97;5037974;28;20049;-71
2021/01/05 03:02:56;;;;;;;38.95;20.98;;;;;;;2.16;81.95;100579.94;5040140;28;20052;-71
2021/01/05 03:06:11;;;;;;;38.28;21.13;;;;;;;2.23;81.47;100583.63;5042533;28;20422;-71
2021/01/05 03:09:26;;;;;;;37.60;21.27;;;;;;;2.20;81.07;100575.69;5033058;28;20045;-70
2021/01/05 03:12:40;;;;;;;37.25;20.83;;;;;;;2.21;81.26;100571.38;5035323;28;20041;-71
2021/01/05 03:15:35;;;;;;;41.72;22.98;;;;;;;2.24;81.10;100564.53;5037987;28;20044;-72
2021/01/05 03:18:39;;;;;;;42.40;23.00;;;;;;;2.22;81.03;100562.72;5042240;28;20084;-71
2021/01/05 03:21:30;;;;;;;45.83;23.90;;;;;;;2.19;81.21;100563.53;5040167;28;20095;-72
2021/01/05 03:24:15;;;;;;;40.88;21.95;;;;;;;2.18;81.15;100565.25;5042676;28;20175;-72
2021/01/05 03:27:00;;;;;;;47.53;23.65;;;;;;;2.08;81.86;100565.81;5033457;28;20067;-70
2021/01/05 03:29:44;;;;;;;41.28;22.25;;;;;;;2.07;81.43;100557.94;5031674;28;20175;-71
2021/01/05 03:32:29;;;;;;;44.67;23.63;;;;;;;2.03;81.66;100562.19;5038322;28;20519;-71
2021/01/05 03:35:17;;;;;;;41.30;21.95;;;;;;;2.08;81.95;100562.34;5027561;28;20030;-71
2021/01/05 03:38:01;;;;;;;42.05;21.48;;;;;;;2.11;82.03;100563.31;5041054;28;20094;-71
2021/01/05 03:40:44;;;;;;;44.15;24.05;;;;;;;2.14;81.61;100563.38;5031369;28;20121;-71
2021/01/05 03:43:28;;;;;;;44.35;22.13;;;;;;;2.16;81.67;100566.91;5040406;28;20087;-72
2021/01/05 03:46:17;;;;;;;41.42;22.38;;;;;;;2.17;81.93;100567.78;5047528;28;20392;-71
2021/01/05 03:49:00;;;;;;;39.72;22.10;;;;;;;2.13;82.22;100569.44;5042782;28;20072;-71
2021/01/05 03:51:44;;;;;;;46.25;22.77;;;;;;;2.12;81.81;100562.47;5035021;28;20150;-71
2021/01/05 03:54:28;;;;;;;42.38;22.67;;;;;;;2.13;81.84;100566.84;5044305;28;20043;-71
2021/01/05 03:57:12;;;;;;;45.92;22.90;;;;;;;2.10;82.12;100560.66;5046038;28;20075;-71
2021/01/05 03:59:56;;;;;;;40.67;21.83;;;;;;;2.15;82.14;100566.91;5036433;28;20076;-70
2021/01/05 04:02:40;;;;;;;44.38;21.58;;;;;;;2.17;82.19;100562.59;5045508;28;20037;-71
2021/01/05 04:05:08;;;;;;;43.83;23.02;;;;;;;2.16;81.87;100564.31;5045817;28;20114;-71
2021/01/05 04:07:33;;;;;;;48.40;23.67;;;;;;;2.14;81.91;100559.91;5043477;28;20037;-72
2021/01/05 04:09:59;;;;;;;63.28;32.17;;;;;;;2.11;83.06;100560.69;5042243;28;20052;-71
2021/01/05 04:12:24;;;;;;;58.45;27.77;;;;;;;2.11;83.07;100563.31;5043042;28;20408;-71
2021/01/05 04:14:49;;;;;;;44.00;23.33;;;;;;;2.17;82.25;100566.09;5045723;28;20376;-71
2021/01/05 04:17:15;;;;;;;42.50;22.90;;;;;;;2.17;82.04;100567.78;5045501;28;20502;-72
2021/01/05 04:19:40;;;;;;;55.97;23.95;;;;;;;2.15;82.05;100572.09;5042213;28;20033;-71
2021/01/05 04:22:05;;;;;;;44.15;22.70;;;;;;;2.13;82.02;100572.03;5041921;28;20124;-71
2021/01/05 04:24:31;;;;;;;46.30;22.23;;;;;;;2.19;81.55;100567.00;5042759;28;20080;-72
2021/01/05 04:26:56;;;;;;;50.33;24.38;;;;;;;2.12;81.91;100567.69;5045308;28;20037;-72
2021/01/05 04:29:21;;;;;;;45.08;24.10;;;;;;;2.06;82.49;100564.88;5044578;28;20037;-71
2021/01/05 04:31:47;;;;;;;44.00;22.17;;;;;;;2.06;82.57;100562.28;5041902;28;20049;-71
2021/01/05 04:34:15;;;;;;;45.10;24.35;;;;;;;2.13;81.88;100569.44;5041676;28;20036;-72
2021/01/05 04:36:40;;;;;;;47.17;23.98;;;;;;;2.14;81.91;100565.97;5045171;28;20040;-71
2021/01/05 04:39:07;;;;;;;43.40;22.52;;;;;;;2.10;82.29;100566.75;5044719;28;20037;-70
2021/01/05 04:41:43;;;;;;;45.28;24.92;;;;;;;2.09;82.38;100570.19;5042864;28;20063;-71
2021/01/05 04:44:13;;;;;;;47.10;23.52;;;;;;;2.12;81.98;100572.91;5040353;28;20403;-71
2021/01/05 04:46:50;;;;;;;45.83;23.95;;;;;;;2.17;82.09;100570.41;5043612;28;20530;-71
2021/01/05 04:49:38;;;;;;;47.72;23.67;;;;;;;2.18;81.93;100570.44;5034158;28;20447;-71
2021/01/05 04:52:13;;;;;;;45.70;23.13;;;;;;;2.22;81.70;100575.75;5041613;28;20037;-71
2021/01/05 04:54:53;;;;;;;45.30;23.30;;;;;;;2.27;81.75;100567.22;5041946;28;20039;-71
2021/01/05 04:57:18;;;;;;;44.67;21.50;;;;;;;2.17;81.88;100568.72;5041235;28;20037;-71
2021/01/05 05:00:05;;;;;;;44.72;23.10;;;;;;;2.14;81.85;100570.31;5044925;28;20064;-71
2021/01/05 05:02:30;;;;;;;44.50;24.00;;;;;;;2.18;81.42;100569.56;5035291;28;20087;-70
2021/01/05 05:05:20;;;;;;;45.33;23.02;;;;;;;2.09;82.18;100567.56;5046627;28;20049;-71
2021/01/05 05:07:57;;;;;;;46.17;22.73;;;;;;;2.06;82.05;100567.50;5033226;28;20488;-71
2021/01/05 05:10:28;;;;;;;41.97;22.67;;;;;;;2.16;82.13;100574.72;5040858;28;20412;-71
2021/01/05 05:13:17;;;;;;;43.55;22.38;;;;;;;2.23;81.63;100574.91;5046787;28;20384;-71
2021/01/05 05:16:12;;;;;;;47.53;23.95;;;;;;;2.25;81.36;100568.88;5033323;28;20045;-70
2021/01/05 05:19:00;;;;;;;45.45;23.95;;;;;;;2.24;81.44;100566.25;5044050;28;20079;-71
2021/01/05 05:22:07;;;;;;;46.45;23.23;;;;;;;2.15;81.97;100572.09;5043125;28;20028;-71
2021/01/05 05:24:48;;;;;;;45.55;21.80;;;;;;;2.07;82.24;100569.28;5043231;28;20163;-71
2021/01/05 05:27:18;;;;;;;53.50;24.88;;;;;;;2.06;82.31;100567.50;5044312;28;20524;-70
2021/01/05 05:29:51;;;;;;;45.55;22.20;;;;;;;2.04;82.13;100571.75;5033055;28;20041;-72
2021/01/05 05:32:23;;;;;;;43.58;22.58;;;;;;;2.06;82.45;100572.69;5040617;28;20033;-71
2021/01/05 05:35:24;;;;;;;51.60;24.25;;;;;;;2.03;82.57;100583.03;5033716;28;20047;-71
2021/01/05 05:38:27;;;;;;;51.00;23.13;;;;;;;1.98;82.47;100574.19;5033564;28;20060;-70
2021/01/05 05:41:01;;;;;;;42.92;22.25;;;;;;;2.06;82.73;100577.91;5033946;28;20025;-71
2021/01/05 05:43:47;;;;;;;45.10;22.48;;;;;;;2.10;81.81;100573.69;5041859;28;20055;-72
2021/01/05 05:46:22;;;;;;;47.22;22.45;;;;;;;2.10;81.99;100579.78;5044000;28;20052;-71
2021/01/05 05:49:05;;;;;;;44.88;22.35;;;;;;;2.06;82.17;100575.31;5033162;28;20029;-71
2021/01/05 05:51:30;;;;;;;;;;;;;;;2.00;82.58;100580.34;5042947;28;20037;-71
2021/01/05 05:54:09;;;;;;;44.65;22.50;;;;;;;2.05;81.74;100585.69;5043678;28;20283;-71
2021/01/05 05:56:53;;;;;;;46.33;22.70;;;;;;;2.11;82.12;100575.44;5041269;28;20029;-71
2021/01/05 05:59:43;;;;;;;56.03;27.40;;;;;;;2.12;81.82;100572.91;5040627;28;20507;-71
2021/01/05 06:02:13;;;;;;;49.95;23.40;;;;;;;2.06;81.85;100572.69;5043319;28;20039;-71
2021/01/05 06:04:38;;;;;;;42.45;20.52;;;;;;;2.09;82.17;100577.97;5039337;28;20033;-70
2021/01/05 06:07:04;;;;;;;47.08;22.30;;;;;;;2.13;82.28;100577.25;5038366;28;20037;-71
2021/01/05 06:09:29;;;;;;;45.13;21.88;;;;;;;2.16;81.57;100579.94;5041038;28;20045;-71
2021/01/05 06:11:55;;;;;;;44.03;21.88;;;;;;;2.05;81.83;100578.75;5043442;28;20076;-71
2021/01/05 06:14:21;;;;;;;67.20;30.17;;;;;;;2.09;82.54;100582.31;5042763;28;20033;-71
2021/01/05 06:16:46;;;;;;;58.85;28.58;;;;;;;2.18;82.72;100588.69;5040041;28;20504;-71
2021/01/05 06:19:12;;;;;;;45.72;22.35;;;;;;;2.21;82.08;100592.22;5039975;28;20044;-72
2021/01/05 06:21:37;;;;;;;40.70;20.58;;;;;;;2.21;81.66;100597.44;5042817;28;20033;-71
2021/01/05 06:24:03;;;;;;;37.40;20.00;;;;;;;2.24;81.51;100597.50;5043161;28;20519;-71
2021/01/05 06:26:28;;;;;;;41.90;22.60;;;;;;;2.27;81.15;100597.59;5041712;28;20434;-72
2021/01/05 06:28:53;;;;;;;40.10;19.85;;;;;;;2.23;81.62;100600.94;5039841;28;20033;-71
2021/01/05 06:31:19;;;;;;;41.80;21.70;;;;;;;2.25;81.17;100599.25;5040108;28;20038;-71
2021/01/05 06:33:44;;;;;;;40.88;22.10;;;;;;;2.19;81.08;100595.66;5039472;28;20115;-71
2021/01/05 06:36:09;;;;;;;40.03;19.95;;;;;;;2.18;81.15;100600.81;5044828;28;20041;-71
2021/01/05 06:38:34;;;;;;;37.55;19.58;;;;;;;2.15;81.42;100595.53;5039307;28;20090;-72
2021/01/05 06:41:01;;;;;;;42.83;21.80;;;;;;;2.17;80.93;100592.13;5039738;28;20038;-72
2021/01/05 06:43:26;;;;;;;44.63;21.90;;;;;;;2.06;80.93;100598.72;5040755;28;20468;-72
2021/01/05 06:45:52;;;;;;;37.13;20.85;;;;;;;1.96;81.20;100588.88;5042921;28;20036;-71
2021/01/05 06:48:17;;;;;;;36.58;19.83;;;;;;;2.03;81.38;100597.78;5042817;28;20041;-70
2021/01/05 06:50:43;;;;;;;39.88;20.83;;;;;;;1.96;81.24;100600.19;5038353;28;20088;-72
2021/01/05 06:53:08;;;;;;;39.42;19.73;;;;;;;1.98;81.24;100589.81;5039195;28;20127;-71
2021/01/05 06:55:33;;;;;;;49.63;23.13;;;;;;;1.89;80.95;100602.56;5040558;28;20081;-71
2021/01/05 06:57:59;;;;;;;42.67;21.50;;;;;;;1.93;81.25;100602.69;5042950;28;20068;-72
2021/01/05 07:00:27;;;;;;;53.05;26.80;;;;;;;2.01;81.86;100600.31;5041805;28;20090;-71
2021/01/05 07:02:53;;;;;;;43.20;21.17;;;;;;;2.03;81.55;100593.44;5039064;28;20033;-70
2021/01/05 07:05:20;;;;;;;35.70;19.48;;;;;;;2.10;81.32;100599.72;5039563;28;20075;-71
2021/01/05 07:07:46;;;;;;;41.38;19.90;;;;;;;2.04;81.06;100600.41;5041570;28;20047;-72
2021/01/05 07:10:12;;;;;;;37.58;19.73;;;;;;;2.01;81.30;100600.31;5042659;28;20036;-72
2021/01/05 07:12:38;;;;;;;44.92;22.45;;;;;;;2.03;80.97;100603.84;5039492;28;20040;-71
2021/01/05 07:15:07;;;;;;;37.70;20.10;;;;;;;2.02;80.79;100607.31;5039728;28;20037;-71
2021/01/05 07:17:32;;;;;;;37.50;19.33;;;;;;;1.96;81.19;100614.91;5040662;28;20190;-71
2021/01/05 07:19:57;;;;;;;42.03;19.85;;;;;;;1.99;81.25;100612.41;5040091;28;20144;-71
2021/01/05 07:22:23;;;;;;;36.97;19.23;;;;;;;1.95;81.59;100615.75;5043850;28;20045;-71
2021/01/05 07:24:48;;;;;;;41.47;20.27;;;;;;;2.00;81.49;100614.19;5046789;28;20048;-71
2021/01/05 07:27:13;;;;;;;34.50;18.13;;;;;;;2.05;81.09;100609.13;5045295;28;20037;-71
2021/01/05 07:29:38;;;;;;;40.22;20.42;;;;;;;2.07;80.88;100616.13;5043639;28;20048;-70
2021/01/05 07:32:04;;;;;;;39.92;20.35;;;;;;;2.08;80.82;100617.88;5042920;28;20037;-71
2021/01/05 07:34:29;;;;;;;38.58;19.33;;;;;;;2.00;81.20;100622.00;5044898;28;20053;-71
2021/01/05 07:36:59;;;;;;;38.13;18.80;;;;;;;2.04;81.44;100618.63;5046579;28;20044;-72
2021/01/05 07:39:27;;;;;;;38.65;19.13;;;;;;;2.12;81.19;100624.06;5039085;28;20030;-71
2021/01/05 07:42:15;;;;;;;36.42;19.23;;;;;;;2.16;80.76;100626.81;5048161;28;20033;-71
2021/01/05 07:44:41;;;;;;;37.33;18.58;;;;;;;2.16;80.92;100625.94;5042955;28;20037;-71
2021/01/05 07:47:07;;;;;;;32.05;16.75;;;;;;;2.23;80.71;100629.56;5043035;28;20045;-71
2021/01/05 07:49:33;;;;;;;34.05;18.63;;;;;;;2.23;80.33;100626.97;5045007;28;20026;-71
2021/01/05 07:51:58;;;;;;;34.53;17.42;;;;;;;2.21;80.33;100631.28;5046199;28;20025;-72
2021/01/05 07:54:23;;;;;;;33.15;18.92;;;;;;;2.17;80.62;100628.59;5045025;28;20612;-71
2021/01/05 07:56:48;;;;;;;30.40;16.90;;;;;;;2.20;80.39;100630.38;5042667;28;20041;-71
2021/01/05 07:59:15;;;;;;;32.42;18.55;;;;;;;2.25;80.12;100627.91;5042468;28;20057;-71
2021/01/05 08:01:41;;;;;;;29.67;16.65;;;;;;;2.23;79.59;100624.38;5045792;28;20090;-71
2021/01/05 08:04:06;;;;;;;34.28;17.55;;;;;;;2.18;80.08;100630.34;5045663;28;20403;-71
2021/01/05 08:06:31;;;;;;;33.30;17.88;;;;;;;2.17;80.41;100639.00;5043877;28;20033;-70
2021/01/05 08:08:57;;;;;;;31.10;17.52;;;;;;;2.15;80.45;100632.00;5042489;28;20480;-71
2021/01/05 08:11:22;;;;;;;30.05;16.52;;;;;;;2.21;80.16;100633.88;5043155;28;20187;-71
2021/01/05 08:13:48;;;;;;;30.98;17.38;;;;;;;2.16;79.94;100629.41;5044135;28;20041;-71
2021/01/05 08:16:14;;;;;;;30.95;16.63;;;;;;;2.17;80.11;100632.88;5045694;28;20396;-72
2021/01/05 08:18:39;;;;;;;32.53;16.60;;;;;;;2.25;79.90;100630.50;5042585;28;20112;-71
2021/01/05 08:21:07;;;;;;;32.90;16.65;;;;;;;2.27;79.85;100621.91;5042236;28;20084;-71
2021/01/05 08:23:33;;;;;;;33.80;17.88;;;;;;;2.29;79.92;100624.56;5044067;28;20072;-71
2021/01/05 08:25:58;;;;;;;31.23;17.42;;;;;;;2.28;79.59;100633.19;5045522;28;20072;-70
2021/01/05 08:28:24;;;;;;;38.30;19.75;;;;;;;2.32;79.63;100622.91;5043271;28;20048;-71
2021/01/05 08:30:49;;;;;;;31.55;17.50;;;;;;;2.39;80.06;100621.38;5041924;28;20045;-71
2021/01/05 08:33:16;;;;;;;33.50;18.73;;;;;;;2.41;79.96;100628.41;5039618;28;20040;-71
2021/01/05 08:35:45;;;;;;;44.55;18.85;;;;;;;2.42;79.55;100622.34;5045415;28;20565;-71
2021/01/05 08:38:10;;;;;;;36.75;19.42;;;;;;;2.30;79.99;100621.09;5045147;28;20051;-71
2021/01/05 08:40:35;;;;;;;36.47;18.98;;;;;;;2.28;80.23;100623.69;5042746;28;20033;-71
2021/01/05 08:43:04;;;;;;;35.63;19.35;;;;;;;2.27;80.64;100621.03;5040324;28;20041;-72
2021/01/05 08:45:30;;;;;;;35.85;18.42;;;;;;;2.28;80.76;100622.78;5043416;28;20037;-71
2021/01/05 08:47:55;;;;;;;36.20;19.02;;;;;;;2.36;80.46;100621.31;5045207;28;20389;-70
2021/01/05 08:50:29;;;;;;;37.05;18.58;;;;;;;2.39;80.08;100618.78;5044617;28;20037;-72
2021/01/05 08:52:56;;;;;;;50.47;21.63;;;;;;;2.27;79.87;100618.44;5041512;28;20057;-71
2021/01/05 08:55:21;;;;;;;38.72;20.17;;;;;;;2.25;80.65;100620.09;5042191;28;20034;-72
2021/01/05 08:57:46;;;;;;;37.47;18.98;;;;;;;2.30;80.77;100624.59;5045017;28;20044;-71
2021/01/05 09:00:12;;;;;;;38.38;18.60;;;;;;;2.24;80.14;100627.03;5044875;28;20037;-71
2021/01/05 09:02:38;;;;;;;44.42;20.65;;;;;;;2.03;80.95;100629.88;5041682;28;20116;-71
2021/01/05 09:05:03;;;;;;;42.40;20.15;;;;;;;1.91;82.06;100630.41;5041452;28;20506;-71
2021/01/05 09:07:29;;;;;;;50.38;26.08;;;;;;;1.88;82.48;100632.91;5042879;28;20045;-71
2021/01/05 09:09:54;;;;;;;42.00;21.40;;;;;;;1.96;82.89;100628.84;5044717;28;20043;-71
2021/01/05 09:12:19;;;;;;;35.60;18.55;;;;;;;2.01;81.99;100625.47;5043995;28;20045;-71
2021/01/05 09:14:45;;;;;;;37.53;18.90;;;;;;;2.01;82.00;100625.47;5043857;28;20045;-71
2021/01/05 09:17:10;;;;;;;37.25;18.38;;;;;;;2.02;81.80;100627.22;5039909;28;20036;-70
2021/01/05 09:19:37;;;;;;;39.72;18.50;;;;;;;1.99;82.11;100633.22;5043727;28;20029;-71
2021/01/05 09:22:03;;;;;;;38.08;19.17;;;;;;;1.98;82.40;100631.47;5044351;28;20503;-71
2021/01/05 09:24:28;;;;;;;41.17;19.00;;;;;;;1.97;81.42;100630.59;5042686;28;20037;-72
2021/01/05 09:26:55;;;;;;;33.97;17.55;;;;;;;1.92;82.10;100631.28;5041018;28;20056;-72
2021/01/05 09:29:23;;;;;;;33.08;18.13;;;;;;;1.97;82.04;100629.72;5040010;28;20037;-72
2021/01/05 09:31:49;;;;;;;32.20;16.63;;;;;;;1.95;81.96;100629.66;5044291;28;20032;-72
2021/01/05 09:34:17;;;;;;;37.13;18.38;;;;;;;1.92;82.15;100632.16;5044129;28;20120;-72
2021/01/05 09:36:43;;;;;;;34.05;17.35;;;;;;;1.87;81.78;100625.94;5032817;28;20048;-72
2021/01/05 09:39:14;;;;;;;45.80;23.90;;;;;;;1.83;82.75;100625.78;5040559;28;20034;-72
2021/01/05 09:41:45;;;;;;;56.22;29.98;;;;;;;2.03;83.52;100623.81;5043790;28;20041;-72
2021/01/05 09:44:11;;;;;;;31.98;18.05;;;;;;;2.09;82.70;100624.84;5043755;28;20479;-72
2021/01/05 09:46:39;;;;;;;35.33;19.00;;;;;;;2.04;81.32;100629.03;5041361;28;20032;-72
2021/01/05 09:49:07;;;;;;;32.63;16.65;;;;;;;1.95;82.12;100623.56;5040838;28;20054;-72
2021/01/05 09:51:32;;;;;;;38.58;18.38;;;;;;;1.89;82.15;100621.66;5042412;28;20480;-72
2021/01/05 09:53:57;;;;;;;38.00;19.02;;;;;;;1.79;81.99;100627.44;5043640;28;20095;-72
2021/01/05 09:56:23;;;;;;;34.42;18.45;;;;;;;1.65;82.43;100615.69;5043082;28;20116;-72
2021/01/05 09:58:48;;;;;;;36.25;16.80;;;;;;;1.59;82.53;100620.72;5040407;28;20048;-72
2021/01/05 10:01:15;;;;;;;39.20;18.35;;;;;;;1.57;82.95;100612.84;5040335;28;20034;-72
2021/01/05 10:03:43;;;;;;;50.30;21.77;;;;;;;1.55;82.83;100614.53;5043507;28;20442;-72
2021/01/05 10:06:10;;;;;;;35.28;18.65;;;;;;;1.56;83.38;100613.69;5043566;28;20040;-72
2021/01/05 10:08:35;;;;;;;37.43;18.53;;;;;;;1.60;82.71;100610.38;5041124;28;20725;-72
2021/01/05 10:11:01;;;;;;;32.42;16.75;;;;;;;1.62;83.25;100611.28;5040280;28;20038;-72
2021/01/05 10:13:26;;;;;;;30.87;16.60;;;;;;;1.75;83.18;100613.41;5041061;28;20037;-72
2021/01/05 10:15:51;;;;;;;32.15;16.33;;;;;;;1.84;82.41;100611.97;5043641;28;20125;-72
2021/01/05 10:18:17;;;;;;;35.50;17.67;;;;;;;1.92;82.42;100605.25;5043524;28;20072;-72
2021/01/05 10:20:42;;;;;;;44.05;19.48;;;;;;;1.82;81.61;100603.22;5039932;28;20087;-72
2021/01/05 10:23:07;;;;;;;30.65;16.95;;;;;;;1.64;82.47;100600.94;5039629;28;20152;-72
2021/01/05 10:25:33;;;;;;;30.50;17.33;;;;;;;1.69;82.51;100602.84;5041990;28;20037;-72
2021/01/05 10:27:58;;;;;;;30.63;16.70;;;;;;;1.73;82.11;100602.09;5042115;28;20040;-72
2021/01/05 10:30:23;;;;;;;28.50;16.25;;;;;;;1.81;81.98;100601.44;5040956;28;20118;-72
2021/01/05 10:32:49;;;;;;;32.40;16.50;;;;;;;1.85;82.43;100598.97;5039514;28;20052;-73
2021/01/05 10:35:17;;;;;;;36.65;18.85;;;;;;;1.86;81.66;100599.84;5039752;28;20037;-72
2021/01/05 10:37:45;;;;;;;33.58;17.65;;;;;;;1.88;81.48;100592.97;5031571;28;20048;-72
2021/01/05 10:40:11;;;;;;;34.88;18.30;;;;;;;1.83;81.81;100600.66;5038815;28;20522;-72
2021/01/05 10:42:41;;;;;;;31.90;17.17;;;;;;;1.93;81.63;100604.41;5042014;28;20412;-72
2021/01/05 10:45:09;;;;;;;32.38;17.60;;;;;;;1.94;81.38;100599.28;5043184;28;20068;-72
2021/01/05 10:47:35;;;;;;;37.38;17.48;;;;;;;1.96;81.28;100596.69;5040450;28;20032;-72
2021/01/05 10:50:03;;;;;;;42.40;20.20;;;;;;;1.90;80.98;100591.31;5039443;28;20037;-72
2021/01/05 10:52:28;;;;;;;31.42;17.05;;;;;;;1.81;81.37;100591.94;5040673;28;20053;-72
2021/01/05 10:54:53;;;;;;;35.93;18.10;;;;;;;1.80;81.57;100597.06;5042534;28;20039;-72
2021/01/05 10:57:19;;;;;;;33.65;17.70;;;;;;;1.82;82.14;100595.41;5042646;28;20475;-72
2021/01/05 10:59:44;;;;;;;31.50;16.25;;;;;;;1.95;81.53;100594.94;5038074;28;20037;-72
2021/01/05 11:02:10;;;;;;;30.92;16.52;;;;;;;2.00;81.72;100588.16;5039122;28;20042;-72
2021/01/05 11:04:36;;;;;;;31.88;17.63;;;;;;;1.90;80.89;100586.09;5041770;28;20037;-72
2021/01/05 11:07:05;;;;;;;30.38;16.45;;;;;;;1.89;81.51;100589.56;5041493;28;20048;-72
2021/01/05 11:09:31;;;;;;;32.17;16.10;;;;;;;1.97;81.77;100593.28;5040954;28;20437;-72
2021/01/05 11:12:01;;;;;;;31.53;17.47;;;;;;;2.03;81.39;100585.63;5039284;28;20061;-72
2021/01/05 11:14:27;;;;;;;31.77;17.43;;;;;;;2.00;81.17;100584.66;5040452;28;20029;-72
2021/01/05 11:16:53;;;;;;;29.83;16.47;;;;;;;2.16;81.52;100574.72;5041526;28;20424;-72
2021/01/05 11:19:19;;;;;;;29.10;15.63;;;;;;;2.21;80.84;100581.81;5044569;28;20735;-72
2021/01/05 11:21:55;;;;;;;31.05;16.00;;;;;;;2.27;80.71;100571.53;5042619;28;20373;-72
2021/01/05 11:24:21;;;;;;;30.42;17.42;;;;;;;2.31;80.54;100576.91;5041960;28;20128;-72
2021/01/05 11:26:48;;;;;;;31.42;17.17;;;;;;;2.26;79.37;100575.00;5039194;28;20407;-72
2021/01/05 11:29:13;;;;;;;28.65;16.20;;;;;;;2.15;80.46;100574.69;5039271;28;20029;-72
2021/01/05 11:31:39;;;;;;;30.88;17.25;;;;;;;2.14;80.59;100579.00;5041932;28;20495;-72
2021/01/05 11:34:04;;;;;;;30.73;16.67;;;;;;;2.14;80.65;100575.53;5042280;28;20043;-72
2021/01/05 11:36:30;;;;;;;32.13;17.33;;;;;;;2.08;80.38;100576.22;5040833;28;20133;-72
2021/01/05 11:38:57;;;;;;;31.38;16.92;;;;;;;2.06;81.02;100567.50;5039017;28;20045;-72
2021/01/05 11:41:29;;;;;;;34.10;16.98;;;;;;;2.07;80.03;100570.97;5039682;28;20120;-72